createdAt,value
2018-01-18T00:01:53.193Z,2.10
2018-01-18T00:04:20.720Z,2.10
2018-01-18T00:06:48.985Z,2.20
2018-01-18T00:09:16.527Z,2.20
2018-01-18T00:11:44.032Z,2.20
2018-01-18T00:14:11.548Z,2.20
2018-01-18T00:19:13.902Z,2.10
2018-01-18T00:21:42.186Z,2.10
2018-01-18T00:24:09.712Z,2.00
2018-01-18T00:26:37.229Z,2.10
2018-01-18T00:29:04.763Z,2.10
2018-01-18T00:31:33.049Z,2.10
2018-01-18T00:34:00.583Z,2.10
2018-01-18T00:36:28.085Z,2.10
2018-01-18T00:38:55.617Z,2.10
2018-01-18T00:41:23.134Z,2.10
2018-01-18T00:43:50.670Z,2.20
2018-01-18T00:46:18.181Z,2.20
2018-01-18T00:48:46.476Z,2.20
2018-01-18T00:51:14.748Z,2.20
2018-01-18T00:53:42.282Z,2.20
2018-01-18T00:56:09.798Z,2.20
2018-01-18T00:58:37.308Z,2.20
2018-01-18T01:01:04.841Z,2.30
2018-01-18T01:03:32.362Z,2.30
2018-01-18T01:05:59.894Z,2.30
2018-01-18T01:08:28.171Z,2.40
2018-01-18T01:10:55.705Z,2.40
2018-01-18T01:13:23.985Z,2.40
2018-01-18T01:15:52.287Z,2.50
2018-01-18T01:18:20.556Z,2.60
2018-01-18T01:20:48.086Z,2.50
2018-01-18T01:23:16.365Z,2.60
2018-01-18T01:25:43.899Z,2.60
2018-01-18T01:28:11.411Z,2.60
2018-01-18T01:30:38.946Z,2.60
2018-01-18T01:33:07.220Z,2.70
2018-01-18T01:35:34.739Z,2.60
2018-01-18T01:38:02.243Z,2.60
2018-01-18T01:40:29.798Z,2.70
2018-01-18T01:42:58.073Z,2.70
2018-01-18T01:45:25.605Z,2.70
2018-01-18T01:47:53.118Z,2.70
2018-01-18T01:50:20.645Z,2.70
2018-01-18T01:52:48.920Z,2.70
2018-01-18T01:55:16.457Z,2.60
2018-01-18T01:57:43.974Z,2.70
2018-01-18T02:00:11.500Z,2.70
2018-01-18T02:02:39.014Z,2.90
2018-01-18T02:05:06.542Z,2.90
2018-01-18T02:07:34.048Z,3.00
2018-01-18T02:10:02.402Z,3.10
2018-01-18T02:12:29.882Z,3.00
2018-01-18T02:14:57.392Z,3.10
2018-01-18T02:17:24.921Z,3.10
2018-01-18T02:19:52.802Z,3.10
2018-01-18T02:22:21.092Z,3.20
2018-01-18T02:24:49.362Z,3.20
2018-01-18T02:27:16.888Z,3.20
2018-01-18T02:29:45.169Z,3.20
2018-01-18T02:32:12.693Z,3.20
2018-01-18T02:34:40.200Z,3.20
2018-01-18T02:37:07.725Z,3.20
2018-01-18T02:39:36.006Z,3.20
2018-01-18T02:42:03.532Z,3.20
2018-01-18T02:44:31.035Z,3.20
2018-01-18T02:46:58.567Z,3.10
2018-01-18T02:49:26.070Z,3.20
2018-01-18T02:51:54.372Z,3.20
2018-01-18T02:54:22.647Z,3.20
2018-01-18T02:56:50.177Z,3.20
2018-01-18T02:59:17.688Z,3.20
2018-01-18T03:01:45.213Z,3.20
2018-01-18T03:04:12.721Z,3.30
2018-01-18T03:06:40.247Z,3.20
2018-01-18T03:09:07.764Z,3.30
2018-01-18T03:11:35.297Z,3.30
2018-01-18T03:14:02.803Z,3.40
2018-01-18T03:16:30.332Z,3.40
2018-01-18T03:18:58.611Z,3.40
2018-01-18T03:21:26.142Z,3.30
2018-01-18T03:23:53.661Z,3.40
2018-01-18T03:26:21.356Z,3.40
2018-01-18T03:28:48.864Z,3.40
2018-01-18T03:31:16.384Z,3.30
2018-01-18T03:33:43.912Z,3.30
2018-01-18T03:36:11.429Z,3.30
2018-01-18T03:38:39.724Z,3.30
2018-01-18T03:41:07.238Z,3.30
2018-01-18T03:43:34.768Z,3.30
2018-01-18T03:46:02.287Z,3.30
2018-01-18T03:48:30.577Z,3.30
2018-01-18T03:50:58.088Z,3.30
2018-01-18T03:53:25.615Z,3.30
2018-01-18T03:55:53.121Z,3.30
2018-01-18T03:58:20.652Z,3.30
2018-01-18T04:00:48.156Z,3.30
2018-01-18T04:03:15.684Z,3.30
2018-01-18T04:05:43.960Z,3.30
2018-01-18T04:08:11.490Z,3.30
2018-01-18T04:10:39.002Z,3.20
2018-01-18T04:13:06.532Z,3.30
2018-01-18T04:15:34.048Z,3.20
2018-01-18T04:18:01.575Z,3.20
2018-01-18T04:20:29.090Z,3.20
2018-01-18T04:22:56.611Z,3.20
2018-01-18T04:25:24.389Z,3.20
2018-01-18T04:27:52.681Z,3.20
2018-01-18T04:30:20.949Z,3.20
2018-01-18T04:32:48.478Z,3.20
2018-01-18T04:35:15.998Z,3.20
2018-01-18T04:37:43.536Z,3.30
2018-01-18T04:40:11.858Z,3.30
2018-01-18T04:42:39.623Z,3.30
2018-01-18T04:45:07.905Z,3.30
2018-01-18T04:47:35.421Z,3.30
2018-01-18T04:50:03.722Z,3.30
2018-01-18T04:52:31.244Z,3.30
2018-01-18T04:54:58.765Z,3.30
2018-01-18T04:57:26.274Z,3.30
2018-01-18T04:59:54.581Z,3.20
2018-01-18T05:02:22.849Z,3.30
2018-01-18T05:04:50.385Z,3.20
2018-01-18T05:07:17.913Z,3.20
2018-01-18T05:09:45.444Z,3.30
2018-01-18T05:12:12.961Z,3.20
2018-01-18T05:14:40.498Z,3.30
2018-01-18T05:17:08.779Z,3.30
2018-01-18T05:19:36.304Z,3.30
2018-01-18T05:22:03.822Z,3.30
2018-01-18T05:24:31.350Z,3.40
2018-01-18T05:26:59.637Z,3.30
2018-01-18T05:29:27.168Z,3.30
2018-01-18T05:31:54.680Z,3.30
2018-01-18T05:34:22.202Z,3.40
2018-01-18T05:36:49.720Z,3.40
2018-01-18T05:39:17.260Z,3.40
2018-01-18T05:41:44.764Z,3.40
2018-01-18T05:44:13.056Z,3.50
2018-01-18T05:46:40.598Z,3.40
2018-01-18T05:49:08.124Z,3.50
2018-01-18T05:51:36.397Z,3.50
2018-01-18T05:54:03.930Z,3.50
2018-01-18T05:56:32.213Z,3.50
2018-01-18T05:58:59.720Z,3.50
2018-01-18T06:01:28.013Z,3.50
2018-01-18T06:03:56.285Z,3.50
2018-01-18T06:06:23.818Z,3.50
2018-01-18T06:08:51.331Z,3.60
2018-01-18T06:11:18.861Z,3.60
2018-01-18T06:13:46.367Z,3.60
2018-01-18T06:16:13.904Z,3.60
2018-01-18T06:18:41.412Z,3.70
2018-01-18T06:21:09.705Z,3.80
2018-01-18T06:23:37.212Z,3.80
2018-01-18T06:26:05.620Z,3.90
2018-01-18T06:28:35.969Z,3.90
2018-01-18T06:31:04.257Z,3.90
2018-01-18T06:33:32.536Z,4.00
2018-01-18T06:36:00.160Z,3.90
2018-01-18T06:38:28.433Z,4.00
2018-01-18T06:40:55.958Z,4.00
2018-01-18T06:43:23.469Z,4.00
2018-01-18T06:45:51.001Z,4.00
2018-01-18T06:48:19.276Z,4.00
2018-01-18T06:50:46.800Z,4.00
2018-01-18T06:53:14.317Z,4.00
2018-01-18T06:55:41.855Z,4.10
2018-01-18T06:58:10.127Z,4.10
2018-01-18T07:00:37.657Z,4.10
2018-01-18T07:03:05.940Z,4.10
2018-01-18T07:05:33.465Z,4.00
2018-01-18T07:08:00.976Z,4.10
2018-01-18T07:10:28.518Z,4.00
2018-01-18T07:12:56.039Z,4.00
2018-01-18T07:15:23.578Z,4.00
2018-01-18T07:17:51.859Z,4.00
2018-01-18T07:20:19.367Z,4.00
2018-01-18T07:22:46.922Z,4.00
2018-01-18T07:25:14.428Z,4.00
2018-01-18T07:27:42.735Z,4.00
2018-01-18T07:30:11.010Z,4.10
2018-01-18T07:32:38.532Z,4.00
2018-01-18T07:35:06.858Z,4.10
2018-01-18T07:37:34.394Z,4.10
2018-01-18T07:40:01.906Z,4.10
2018-01-18T07:42:29.437Z,4.10
2018-01-18T07:44:56.950Z,4.10
2018-01-18T07:47:25.248Z,4.10
2018-01-18T07:49:52.762Z,4.00
2018-01-18T07:52:20.291Z,4.10
2018-01-18T07:54:47.791Z,4.10
2018-01-18T07:57:21.108Z,4.10
2018-01-18T07:59:48.620Z,4.10
2018-01-18T08:02:16.148Z,4.20
2018-01-18T08:04:43.689Z,4.30
2018-01-18T08:07:11.225Z,4.30
2018-01-18T08:09:38.733Z,4.40
2018-01-18T08:12:06.261Z,4.40
2018-01-18T08:14:34.541Z,4.40
2018-01-18T08:17:02.072Z,4.40
2018-01-18T08:19:29.643Z,4.50
2018-01-18T08:21:57.942Z,4.60
2018-01-18T08:24:26.223Z,4.60
2018-01-18T08:26:53.759Z,4.60
2018-01-18T08:29:21.273Z,4.70
2018-01-18T08:31:49.454Z,4.70
2018-01-18T08:34:16.974Z,4.80
2018-01-18T08:36:44.481Z,4.80
2018-01-18T08:39:12.781Z,4.90
2018-01-18T08:41:41.056Z,5.00
2018-01-18T08:44:08.579Z,5.00
2018-01-18T08:46:36.845Z,5.10
2018-01-18T08:49:04.380Z,5.10
2018-01-18T08:51:31.892Z,5.20
2018-01-18T08:53:59.420Z,5.20
2018-01-18T08:56:27.709Z,5.30
2018-01-18T08:58:55.233Z,5.30
2018-01-18T09:01:22.736Z,5.40
2018-01-18T09:03:50.286Z,5.50
2018-01-18T09:06:18.572Z,5.60
2018-01-18T09:08:46.869Z,5.60
2018-01-18T09:11:14.396Z,5.60
2018-01-18T09:13:41.924Z,5.60
2018-01-18T09:16:09.441Z,5.60
2018-01-18T09:18:36.973Z,5.70
2018-01-18T09:21:04.480Z,5.80
2018-01-18T09:23:32.032Z,5.80
2018-01-18T09:25:59.548Z,5.90
2018-01-18T09:28:27.077Z,5.90
2018-01-18T09:30:55.343Z,6.00
2018-01-18T09:33:22.877Z,6.00
2018-01-18T09:35:50.391Z,6.00
2018-01-18T09:38:17.916Z,6.10
2018-01-18T09:40:45.425Z,6.10
2018-01-18T09:43:12.944Z,6.20
2018-01-18T09:45:40.466Z,6.30
2018-01-18T09:48:08.005Z,6.30
2018-01-18T09:50:35.540Z,6.40
2018-01-18T09:53:03.045Z,6.40
2018-01-18T09:55:30.586Z,6.50
2018-01-18T09:57:58.096Z,6.60
2018-01-18T10:00:25.624Z,6.70
2018-01-18T10:02:53.144Z,6.80
2018-01-18T10:05:20.696Z,6.90
2018-01-18T10:07:48.214Z,7.00
2018-01-18T10:10:15.739Z,7.20
2018-01-18T10:12:43.279Z,7.40
2018-01-18T10:15:10.805Z,7.50
2018-01-18T10:17:38.312Z,7.50
2018-01-18T10:20:06.622Z,7.50
2018-01-18T10:22:34.893Z,7.60
2018-01-18T10:25:02.526Z,7.60
2018-01-18T10:27:30.046Z,7.60
2018-01-18T10:29:57.577Z,7.50
2018-01-18T10:32:25.091Z,7.40
2018-01-18T10:34:52.634Z,7.30
2018-01-18T10:37:20.148Z,7.30
2018-01-18T10:39:48.455Z,7.40
2018-01-18T10:42:15.974Z,7.40
2018-01-18T10:44:43.513Z,7.40
2018-01-18T10:47:11.793Z,7.40
2018-01-18T10:49:39.316Z,7.40
2018-01-18T10:52:07.591Z,7.50
2018-01-18T10:54:35.123Z,7.50
2018-01-18T10:57:05.515Z,7.60
2018-01-18T10:59:33.070Z,7.60
2018-01-18T11:02:01.366Z,7.60
2018-01-18T11:04:28.917Z,7.50
2018-01-18T11:06:57.193Z,7.50
2018-01-18T11:09:24.717Z,7.40
2018-01-18T11:11:52.227Z,7.60
2018-01-18T11:14:19.749Z,7.50
2018-01-18T11:16:49.544Z,7.60
2018-01-18T11:19:17.052Z,7.60
2018-01-18T11:21:44.579Z,7.60
2018-01-18T11:24:12.865Z,7.90
2018-01-18T11:26:41.163Z,7.90
2018-01-18T11:29:08.682Z,7.90
2018-01-18T11:31:37.047Z,7.90
2018-01-18T11:34:04.560Z,8.00
2018-01-18T11:36:32.088Z,8.00
2018-01-18T11:38:59.622Z,8.00
2018-01-18T11:41:27.152Z,8.00
2018-01-18T11:43:54.665Z,8.10
2018-01-18T11:46:22.203Z,8.20
2018-01-18T11:48:49.718Z,8.30
2018-01-18T11:51:17.268Z,8.40
2018-01-18T11:53:44.803Z,8.30
2018-01-18T11:56:12.350Z,8.30
2018-01-18T11:58:39.874Z,8.30
2018-01-18T12:01:07.410Z,8.30
2018-01-18T12:03:35.702Z,8.50
2018-01-18T12:06:03.995Z,8.60
2018-01-18T12:08:31.579Z,8.60
2018-01-18T12:10:59.894Z,8.50
2018-01-18T12:13:28.162Z,8.40
2018-01-18T12:15:55.695Z,8.40
2018-01-18T12:18:23.985Z,8.40
2018-01-18T12:20:51.517Z,8.40
2018-01-18T12:23:19.032Z,8.30
2018-01-18T12:25:46.619Z,8.30
2018-01-18T12:28:14.101Z,8.20
2018-01-18T12:30:41.613Z,8.20
2018-01-18T12:33:09.139Z,8.30
2018-01-18T12:35:37.412Z,8.20
2018-01-18T12:38:07.516Z,8.30
2018-01-18T12:40:35.908Z,8.30
2018-01-18T12:43:03.438Z,8.30
2018-01-18T12:45:30.968Z,8.40
2018-01-18T12:47:59.260Z,8.50
2018-01-18T12:50:27.544Z,8.60
2018-01-18T12:52:55.071Z,8.60
2018-01-18T12:55:22.572Z,8.70
2018-01-18T12:57:50.105Z,8.80
2018-01-18T13:00:18.380Z,8.70
2018-01-18T13:02:45.933Z,8.70
2018-01-18T13:05:13.498Z,8.70
2018-01-18T13:07:41.015Z,8.60
2018-01-18T13:10:08.664Z,8.50
2018-01-18T13:12:36.207Z,8.60
2018-01-18T13:15:03.744Z,8.60
2018-01-18T13:17:32.479Z,8.70
2018-01-18T13:19:59.992Z,8.70
2018-01-18T13:22:27.554Z,8.80
2018-01-18T13:24:55.088Z,8.80
2018-01-18T13:27:22.635Z,9.00
2018-01-18T13:29:50.154Z,9.00
2018-01-18T13:32:17.724Z,9.10
2018-01-18T13:34:45.386Z,9.30
2018-01-18T13:37:13.152Z,9.40
2018-01-18T13:39:40.693Z,9.40
2018-01-18T13:42:08.987Z,9.50
2018-01-18T13:44:37.136Z,9.50
2018-01-18T13:47:04.773Z,9.50
2018-01-18T13:49:32.637Z,9.50
2018-01-18T13:52:00.268Z,9.50
2018-01-18T13:54:27.789Z,9.40
2018-01-18T13:56:55.311Z,9.50
2018-01-18T13:59:22.944Z,9.40
2018-01-18T14:01:51.615Z,9.40
2018-01-18T14:04:19.289Z,9.40
2018-01-18T14:06:47.047Z,9.20
2018-01-18T14:09:14.952Z,9.10
2018-01-18T14:11:42.624Z,9.00
2018-01-18T14:14:10.170Z,8.80
2018-01-18T14:16:38.339Z,8.70
2018-01-18T14:19:06.641Z,8.30
2018-01-18T14:21:34.351Z,8.30
2018-01-18T14:24:02.033Z,8.40
2018-01-18T14:26:29.554Z,8.30
2018-01-18T14:28:57.988Z,8.20
2018-01-18T14:31:26.421Z,8.30
2018-01-18T14:33:54.272Z,8.30
2018-01-18T14:36:21.838Z,8.20
2018-01-18T14:38:50.242Z,8.00
2018-01-18T14:41:18.712Z,8.00
2018-01-18T14:43:46.350Z,8.00
2018-01-18T14:46:13.914Z,7.90
2018-01-18T14:48:44.788Z,7.70
2018-01-18T14:51:12.898Z,7.60
2018-01-18T14:53:40.545Z,7.60
2018-01-18T14:56:08.143Z,7.60
2018-01-18T14:58:36.672Z,7.60
2018-01-18T15:01:05.492Z,7.50
2018-01-18T15:03:33.070Z,7.40
2018-01-18T15:06:01.388Z,7.30
2018-01-18T15:08:28.915Z,7.30
2018-01-18T15:10:56.451Z,7.30
2018-01-18T15:13:24.753Z,7.30
2018-01-18T15:15:53.063Z,7.20
2018-01-18T15:18:21.459Z,7.20
2018-01-18T15:20:49.770Z,7.20
2018-01-18T15:23:18.085Z,7.20
2018-01-18T15:25:45.644Z,7.10
2018-01-18T15:28:13.180Z,7.10
2018-01-18T15:30:40.756Z,7.10
2018-01-18T15:33:08.311Z,7.10
2018-01-18T15:35:36.913Z,7.10
2018-01-18T15:38:05.572Z,7.10
2018-01-18T15:40:33.145Z,7.10
2018-01-18T15:43:00.679Z,7.10
2018-01-18T15:45:28.263Z,7.10
2018-01-18T15:47:55.801Z,7.10
2018-01-18T15:50:23.342Z,7.10
2018-01-18T15:52:51.638Z,7.00
2018-01-18T15:55:19.174Z,7.00
2018-01-18T15:57:46.698Z,7.10
2018-01-18T16:00:14.240Z,7.00
2018-01-18T16:02:41.761Z,7.10
2018-01-18T16:05:09.314Z,7.10
2018-01-18T16:07:36.842Z,7.10
2018-01-18T16:10:04.387Z,7.10
2018-01-18T16:12:31.909Z,7.10
2018-01-18T16:14:59.446Z,7.10
2018-01-18T16:17:26.990Z,7.10
2018-01-18T16:19:55.284Z,7.10
2018-01-18T16:22:22.825Z,7.10
2018-01-18T16:24:50.348Z,7.10
2018-01-18T16:27:17.895Z,7.10
2018-01-18T16:29:45.432Z,7.10
2018-01-18T16:32:12.975Z,7.10
2018-01-18T16:34:40.502Z,7.10
2018-01-18T16:37:08.061Z,7.10
2018-01-18T16:39:35.587Z,7.10
2018-01-18T16:42:03.908Z,7.10
2018-01-18T16:44:31.427Z,7.10
2018-01-18T16:46:59.928Z,7.10
2018-01-18T16:49:27.451Z,7.00
2018-01-18T16:51:55.715Z,7.00
2018-01-18T16:54:23.247Z,7.00
2018-01-18T16:56:50.791Z,7.00
2018-01-18T16:59:18.362Z,6.90
2018-01-18T17:01:45.903Z,7.00
2018-01-18T17:04:13.434Z,7.10
2018-01-18T17:06:40.987Z,7.20
2018-01-18T17:09:08.514Z,7.20
2018-01-18T17:11:36.069Z,7.10
2018-01-18T17:14:04.388Z,7.10
2018-01-18T17:16:32.697Z,7.10
2018-01-18T17:19:00.226Z,7.10
2018-01-18T17:21:27.785Z,7.10
2018-01-18T17:23:55.320Z,7.10
2018-01-18T17:26:22.842Z,7.10
2018-01-18T17:28:50.380Z,7.10
2018-01-18T17:31:17.914Z,7.10
2018-01-18T17:33:45.458Z,7.00
2018-01-18T17:36:12.982Z,6.90
2018-01-18T17:38:40.554Z,6.90
2018-01-18T17:41:08.842Z,6.90
2018-01-18T17:43:36.399Z,6.90
2018-01-18T17:46:03.929Z,6.80
2018-01-18T17:48:31.493Z,6.80
2018-01-18T17:50:59.012Z,6.80
2018-01-18T17:53:27.431Z,6.80
2018-01-18T17:55:54.945Z,6.80
2018-01-18T17:58:22.500Z,6.90
2018-01-18T18:00:50.032Z,6.80
2018-01-18T18:03:17.571Z,6.80
2018-01-18T18:05:45.855Z,6.90
2018-01-18T18:08:13.471Z,6.90
2018-01-18T18:10:41.753Z,6.90
2018-01-18T18:13:09.303Z,6.90
2018-01-18T18:15:36.837Z,7.00
2018-01-18T18:18:05.154Z,6.90
2018-01-18T18:20:33.439Z,6.90
2018-01-18T18:23:01.765Z,7.00
2018-01-18T18:25:30.055Z,7.00
2018-01-18T18:27:57.610Z,7.00
2018-01-18T18:30:25.153Z,7.00
2018-01-18T18:32:52.693Z,7.00
2018-01-18T18:35:20.229Z,6.90
2018-01-18T18:37:47.795Z,6.90
2018-01-18T18:40:16.078Z,6.70
2018-01-18T18:42:43.598Z,6.70
2018-01-18T18:45:11.137Z,6.60
2018-01-18T18:47:38.660Z,6.50
2018-01-18T18:50:06.971Z,6.40
2018-01-18T18:52:34.491Z,6.30
2018-01-18T18:55:02.049Z,6.30
2018-01-18T18:57:29.585Z,6.20
2018-01-18T18:59:57.913Z,5.90
2018-01-18T19:02:26.930Z,5.90
2018-01-18T19:04:54.512Z,5.90
2018-01-18T19:07:22.078Z,5.90
2018-01-18T19:09:49.702Z,5.90
2018-01-18T19:12:18.057Z,5.90
2018-01-18T19:14:46.417Z,5.80
2018-01-18T19:17:14.977Z,5.70
2018-01-18T19:19:42.519Z,5.70
2018-01-18T19:22:10.868Z,5.60
2018-01-18T19:24:38.414Z,5.60
2018-01-18T19:27:05.987Z,5.50
2018-01-18T19:29:33.535Z,5.50
2018-01-18T19:32:01.077Z,5.40
2018-01-18T19:34:28.661Z,5.30
2018-01-18T19:36:56.237Z,5.30
2018-01-18T19:39:23.838Z,5.20
2018-01-18T19:41:51.416Z,5.20
2018-01-18T19:44:19.010Z,5.20
2018-01-18T19:46:46.583Z,5.20
2018-01-18T19:49:14.123Z,5.20
2018-01-18T19:51:41.644Z,5.20
2018-01-18T19:54:09.197Z,5.20
2018-01-18T19:56:36.726Z,5.20
2018-01-18T19:59:04.282Z,5.30
2018-01-18T20:01:31.870Z,5.20
2018-01-18T20:03:59.465Z,5.20
2018-01-18T20:06:27.038Z,5.10
2018-01-18T20:08:54.605Z,5.10
2018-01-18T20:11:22.147Z,5.00
2018-01-18T20:13:49.751Z,4.90
2018-01-18T20:16:17.346Z,4.80
2018-01-18T20:18:44.868Z,4.80
2018-01-18T20:21:12.411Z,4.70
2018-01-18T20:23:39.939Z,4.90
2018-01-18T20:26:08.257Z,4.90
2018-01-18T20:28:35.838Z,4.90
2018-01-18T20:31:04.207Z,4.90
2018-01-18T20:33:31.786Z,4.90
2018-01-18T20:35:59.388Z,5.00
2018-01-18T20:38:26.914Z,5.30
2018-01-18T20:40:54.455Z,5.30
2018-01-18T20:43:22.034Z,5.40
2018-01-18T20:45:49.652Z,5.50
2018-01-18T20:48:17.235Z,5.40
2018-01-18T20:50:44.833Z,5.40
2018-01-18T20:53:13.123Z,5.30
2018-01-18T20:55:40.729Z,5.30
2018-01-18T20:58:09.084Z,5.20
2018-01-18T21:00:36.626Z,5.20
2018-01-18T21:03:04.925Z,5.30
2018-01-18T21:05:33.276Z,5.20
2018-01-18T21:08:00.794Z,5.20
2018-01-18T21:10:28.342Z,5.20
2018-01-18T21:12:55.866Z,5.20
2018-01-18T21:15:23.486Z,5.20
2018-01-18T21:17:51.829Z,5.10
2018-01-18T21:20:19.370Z,5.10
2018-01-18T21:22:47.683Z,5.10
2018-01-18T21:25:16.021Z,5.20
2018-01-18T21:27:43.578Z,5.20
2018-01-18T21:30:11.164Z,5.10
2018-01-18T21:32:38.724Z,5.00
2018-01-18T21:35:07.057Z,4.90
2018-01-18T21:37:34.671Z,4.90
2018-01-18T21:40:02.247Z,4.90
2018-01-18T21:42:29.857Z,4.90
2018-01-18T21:44:57.396Z,4.90
2018-01-18T21:47:24.988Z,4.90
2018-01-18T21:49:52.514Z,4.90
2018-01-18T21:52:20.063Z,4.80
2018-01-18T21:54:48.413Z,4.80
2018-01-18T21:57:16.730Z,4.90
2018-01-18T21:59:44.254Z,4.90
2018-01-18T22:02:11.797Z,4.80
2018-01-18T22:04:40.095Z,4.90
2018-01-18T22:07:07.648Z,4.90
2018-01-18T22:09:35.185Z,4.90
2018-01-18T22:12:02.737Z,4.90
2018-01-18T22:14:30.261Z,4.90
2018-01-18T22:16:57.810Z,4.90
2018-01-18T22:19:25.351Z,5.00
2018-01-18T22:21:52.896Z,5.00
2018-01-18T22:24:22.040Z,5.00
2018-01-18T22:26:49.634Z,5.00
2018-01-18T22:29:17.195Z,5.00
2018-01-18T22:31:45.563Z,5.00
2018-01-18T22:34:13.095Z,5.00
2018-01-18T22:36:41.382Z,5.00
2018-01-18T22:39:08.978Z,5.00
2018-01-18T22:41:36.508Z,5.00
2018-01-18T22:44:04.055Z,5.00
2018-01-18T22:46:31.578Z,4.90
2018-01-18T22:48:59.140Z,4.80
2018-01-18T22:51:27.445Z,4.90
2018-01-18T22:53:54.990Z,4.90
2018-01-18T22:56:22.521Z,4.90
2018-01-18T22:58:50.058Z,4.90
2018-01-18T23:01:17.583Z,4.90
2018-01-18T23:03:45.131Z,5.00
2018-01-18T23:06:12.650Z,5.10
2018-01-18T23:08:40.199Z,5.10
2018-01-18T23:11:07.736Z,5.10
2018-01-18T23:13:35.278Z,5.10
2018-01-18T23:16:02.804Z,5.20
2018-01-18T23:18:30.350Z,5.20
2018-01-18T23:20:57.869Z,5.20
2018-01-18T23:23:25.792Z,5.10
2018-01-18T23:25:53.311Z,5.00
2018-01-18T23:28:20.882Z,5.00
2018-01-18T23:30:49.174Z,4.90
2018-01-18T23:33:17.483Z,4.80
2018-01-18T23:35:45.770Z,4.70
2018-01-18T23:38:13.316Z,4.80
2018-01-18T23:40:40.840Z,4.70
2018-01-18T23:43:08.493Z,4.70
2018-01-18T23:45:36.018Z,4.70
2018-01-18T23:48:04.327Z,4.80
2018-01-18T23:50:32.635Z,4.70
2018-01-18T23:53:00.945Z,4.70
2018-01-18T23:55:28.532Z,4.70
2018-01-18T23:57:56.054Z,4.70
